Time;durP1;ratioP1;P1;durP2;ratioP2;P2;SDS_P1;SDS_P2;PMS_P1;PMS_P2;Temp;Humidity;BMP_temperature;BMP_pressure;BME280_temperature;BME280_humidity;BME280_pressure;Samples;Min_cycle;Max_cycle;Signal;HPM_P1;HPM_P2
2024/04/05 00:01:32;;;;;;;;;;;;;;;;;;5096490;28;19959;-73
2024/04/05 00:03:58;;;;;;;;;;;;;;;;;;5096894;28;19915;-73
2024/04/05 00:06:24;;;;;;;;;;;;;;;;;;5096949;28;19920;-73
2024/04/05 00:08:50;;;;;;;;;;;;;;;;;;5096393;28;19908;-73
2024/04/05 00:11:16;;;;;;;;;;;;;;;;;;5096689;28;19908;-73
2024/04/05 00:13:42;;;;;;;;;;;;;;;;;;5096599;28;19923;-73
2024/04/05 00:16:08;;;;;;;;;;;;;;;;;;5096255;28;19912;-73
2024/04/05 00:18:34;;;;;;;;;;;;;;;;;;5096572;28;19930;-73
2024/04/05 00:21:00;;;;;;;;;;;;;;;;;;5096531;28;19908;-73
2024/04/05 00:23:27;;;;;;;;;;;;;;;;;;5096075;28;20360;-73
2024/04/05 00:25:53;;;;;;;;;;;;;;;;;;5096547;28;19908;-73
2024/04/05 00:28:19;;;;;;;;;;;;;;;;;;5095973;28;19908;-74
2024/04/05 00:30:45;;;;;;;;;;;;;;;;;;5096313;28;19993;-73
2024/04/05 00:33:11;;;;;;;;;;;;;;;;;;5096167;28;19923;-73
2024/04/05 00:35:37;;;;;;;;;;;;;;;;;;5095901;28;19912;-74
2024/04/05 00:38:03;;;;;;;;;;;;;;;;;;5096280;28;19908;-73
2024/04/05 00:40:29;;;;;;;;;;;;;;;;;;5096265;28;19961;-74
2024/04/05 00:42:55;;;;;;;;;;;;;;;;;;5095735;28;19912;-73
2024/04/05 00:45:21;;;;;;;;;;;;;;;;;;5096085;28;19989;-73
2024/04/05 00:47:47;;;;;;;;;;;;;;;;;;5096053;28;19958;-73
2024/04/05 00:50:13;;;;;;;;;;;;;;;;;;5095417;28;19908;-73
2024/04/05 00:52:39;;;;;;;;;;;;;;;;;;5095589;28;19920;-73
2024/04/05 00:55:04;;;;;;;;;;;;;;;;;;5095904;28;19952;-73
2024/04/05 00:57:30;;;;;;;;;;;;;;;;;;5095498;28;19916;-73
2024/04/05 00:59:56;;;;;;;;;;;;;;;;;;5096057;28;19953;-73
2024/04/05 01:02:22;;;;;;;;;;;;;;;;;;5096186;28;19908;-73
2024/04/05 01:04:48;;;;;;;;;;;;;;;;;;5095194;28;19908;-73
2024/04/05 01:07:14;;;;;;;;;;;;;;;;;;5095553;28;19908;-73
2024/04/05 01:09:40;;;;;;;;;;;;;;;;;;5094194;28;19914;-73
2024/04/05 01:12:06;;;;;;;;;;;;;;;;;;5093784;28;19908;-73
2024/04/05 01:14:32;;;;;;;;;;;;;;;;;;5095535;28;19931;-73
2024/04/05 01:16:58;;;;;;;;;;;;;;;;;;5094147;28;19908;-73
2024/04/05 01:19:24;;;;;;;;;;;;;;;;;;5094930;28;19959;-73
2024/04/05 01:21:50;;;;;;;;;;;;;;;;;;5095281;28;19962;-73
2024/04/05 01:24:16;;;;;;;;;;;;;;;;;;5095408;28;19926;-73
2024/04/05 01:26:42;;;;;;;;;;;;;;;;;;5094834;28;19915;-73
2024/04/05 01:29:08;;;;;;;;;;;;;;;;;;5095138;28;19962;-73
2024/04/05 01:31:33;;;;;;;;;;;;;;;;;;5094725;28;19909;-73
2024/04/05 01:33:59;;;;;;;;;;;;;;;;;;5093783;28;19962;-73
2024/04/05 01:36:25;;;;;;;;;;;;;;;;;;5095005;28;19915;-73
2024/04/05 01:38:51;;;;;;;;;;;;;;;;;;5094602;28;19908;-73
2024/04/05 01:41:17;;;;;;;;;;;;;;;;;;5095271;28;19912;-74
2024/04/05 01:43:43;;;;;;;;;;;;;;;;;;5094826;28;19915;-73
2024/04/05 01:46:09;;;;;;;;;;;;;;;;;;5094678;28;19908;-73
2024/04/05 01:48:35;;;;;;;;;;;;;;;;;;5095007;28;19928;-74
2024/04/05 01:51:01;;;;;;;;;;;;;;;;;;5094720;28;19951;-73
2024/04/05 01:53:27;;;;;;;;;;;;;;;;;;5094042;28;19939;-74
2024/04/05 01:55:53;;;;;;;;;;;;;;;;;;5093438;28;19908;-73
2024/04/05 01:58:19;;;;;;;;;;;;;;;;;;5094579;28;19995;-74
2024/04/05 02:00:45;;;;;;;;;;;;;;;;;;5094286;28;19908;-74
2024/04/05 02:03:11;;;;;;;;;;;;;;;;;;5094014;28;19934;-74
2024/04/05 02:05:37;;;;;;;;;;;;;;;;;;5094736;28;19908;-73
2024/04/05 02:08:03;;;;;;;;;;;;;;;;;;5093996;28;19975;-73
2024/04/05 02:10:29;;;;;;;;;;;;;;;;;;5093121;28;20031;-74
2024/04/05 02:12:55;;;;;;;;;;;;;;;;;;5094308;28;20006;-73
2024/04/05 02:15:21;;;;;;;;;;;;;;;;;;5094038;28;19951;-73
2024/04/05 02:17:47;;;;;;;;;;;;;;;;;;5094350;28;19962;-73
2024/04/05 02:20:13;;;;;;;;;;;;;;;;;;5094309;28;19931;-74
2024/04/05 02:22:38;;;;;;;;;;;;;;;;;;5093827;28;19912;-73
2024/04/05 02:25:05;;;;;;;;;;;;;;;;;;5094169;28;19908;-74
2024/04/05 02:27:31;;;;;;;;;;;;;;;;;;5094162;28;20421;-74
2024/04/05 02:29:57;;;;;;;;;;;;;;;;;;5093684;28;19912;-73
2024/04/05 02:32:23;;;;;;;;;;;;;;;;;;5094001;28;19912;-74
2024/04/05 02:34:49;;;;;;;;;;;;;;;;;;5093721;28;19912;-74
2024/04/05 02:37:15;;;;;;;;;;;;;;;;;;5093987;28;19977;-74
2024/04/05 02:39:41;;;;;;;;;;;;;;;;;;5093967;28;19912;-74
2024/04/05 02:42:07;;;;;;;;;;;;;;;;;;5093477;28;19916;-74
2024/04/05 02:44:33;;;;;;;;;;;;;;;;;;5093877;28;20280;-74
2024/04/05 02:46:59;;;;;;;;;;;;;;;;;;5092591;28;20049;-73
2024/04/05 02:49:25;;;;;;;;;;;;;;;;;;5093468;28;19915;-73
2024/04/05 02:51:51;;;;;;;;;;;;;;;;;;5093858;28;19955;-73
2024/04/05 02:54:17;;;;;;;;;;;;;;;;;;5093953;28;19920;-73
2024/04/05 02:56:43;;;;;;;;;;;;;;;;;;5093594;28;19916;-74
2024/04/05 02:59:09;;;;;;;;;;;;;;;;;;5093713;28;20364;-74
2024/04/05 03:01:35;;;;;;;;;;;;;;;;;;5093790;28;19908;-73
2024/04/05 03:04:00;;;;;;;;;;;;;;;;;;5093305;28;19908;-73
2024/04/05 03:06:26;;;;;;;;;;;;;;;;;;5093753;28;19908;-73
2024/04/05 03:08:52;;;;;;;;;;;;;;;;;;5093696;28;20367;-74
2024/04/05 03:11:18;;;;;;;;;;;;;;;;;;5093354;28;19912;-74
2024/04/05 03:13:44;;;;;;;;;;;;;;;;;;5093585;28;20003;-74
2024/04/05 03:16:10;;;;;;;;;;;;;;;;;;5097375;28;19915;-74
2024/04/05 03:18:36;;;;;;;;;;;;;;;;;;5097276;28;20003;-74
2024/04/05 03:21:02;;;;;;;;;;;;;;;;;;5097973;28;19908;-74
2024/04/05 03:23:28;;;;;;;;;;;;;;;;;;5097863;28;19907;-74
2024/04/05 03:25:55;;;;;;;;;;;;;;;;;;5097121;28;19991;-74
2024/04/05 03:28:21;;;;;;;;;;;;;;;;;;5097573;28;20022;-74
2024/04/05 03:30:46;;;;;;;;;;;;;;;;;;5097483;28;19951;-74
2024/04/05 03:33:12;;;;;;;;;;;;;;;;;;5096921;28;19931;-74
2024/04/05 03:35:38;;;;;;;;;;;;;;;;;;5097593;28;19915;-74
2024/04/05 03:38:04;;;;;;;;;;;;;;;;;;5097223;28;20006;-74
2024/04/05 03:40:30;;;;;;;;;;;;;;;;;;5097313;28;19912;-74
2024/04/05 03:42:56;;;;;;;;;;;;;;;;;;5097210;28;19916;-74
2024/04/05 03:45:22;;;;;;;;;;;;;;;;;;5096824;28;20006;-74
2024/04/05 03:47:48;;;;;;;;;;;;;;;;;;5097167;28;19915;-73
2024/04/05 03:50:14;;;;;;;;;;;;;;;;;;5097204;28;19954;-73
2024/04/05 03:52:40;;;;;;;;;;;;;;;;;;5096464;28;19912;-73
2024/04/05 03:55:06;;;;;;;;;;;;;;;;;;5097172;28;19948;-73
2024/04/05 03:57:32;;;;;;;;;;;;;;;;;;5096986;28;19915;-73
2024/04/05 03:59:58;;;;;;;;;;;;;;;;;;5096635;28;19913;-73
2024/04/05 04:02:24;;;;;;;;;;;;;;;;;;5096922;28;19908;-74
2024/04/05 04:04:51;;;;;;;;;;;;;;;;;;5096834;28;19930;-73
2024/04/05 04:07:17;;;;;;;;;;;;;;;;;;5096394;28;19908;-73
2024/04/05 04:09:43;;;;;;;;;;;;;;;;;;5096821;28;19916;-73
2024/04/05 04:12:09;;;;;;;;;;;;;;;;;;5096688;28;19915;-73
2024/04/05 04:14:37;;;;;;;;;;;;;;;;;;5096244;28;19955;-73
2024/04/05 04:17:03;;;;;;;;;;;;;;;;;;5096586;28;19908;-73
2024/04/05 04:19:29;;;;;;;;;;;;;;;;;;5096615;28;19914;-73
2024/04/05 04:21:56;;;;;;;;;;;;;;;;;;5096052;28;19915;-74
2024/04/05 04:24:21;;;;;;;;;;;;;;;;;;5095019;28;19912;-73
2024/04/05 04:26:47;;;;;;;;;;;;;;;;;;5095223;28;19912;-74
2024/04/05 04:29:13;;;;;;;;;;;;;;;;;;5093883;28;19908;-74
2024/04/05 04:31:39;;;;;;;;;;;;;;;;;;5094271;28;19912;-73
2024/04/05 04:34:05;;;;;;;;;;;;;;;;;;5094692;28;19916;-73
2024/04/05 04:36:31;;;;;;;;;;;;;;;;;;5094528;28;20279;-73
2024/04/05 04:38:58;;;;;;;;;;;;;;;;;;5095434;28;19912;-73
2024/04/05 04:41:24;;;;;;;;;;;;;;;;;;5094961;28;19919;-73
2024/04/05 04:43:52;;;;;;;;;;;;;;;;;;5095079;28;20368;-73
2024/04/05 04:46:18;;;;;;;;;;;;;;;;;;5093912;28;20374;-72
2024/04/05 04:48:44;;;;;;;;;;;;;;;;;;5093994;28;19919;-72
2024/04/05 04:51:10;;;;;;;;;;;;;;;;;;5094054;28;20029;-72
2024/04/05 04:53:36;;;;;;;;;;;;;;;;;;5093602;28;19965;-72
2024/04/05 04:56:02;;;;;;;;;;;;;;;;;;5094831;28;20284;-72
2024/04/05 04:58:33;;;;;;;;;;;;;;;;;;5095591;28;20288;-72
2024/04/05 05:00:59;;;;;;;;;;;;;;;;;;5095705;28;19909;-72
2024/04/05 05:03:25;;;;;;;;;;;;;;;;;;5095427;28;19919;-72
2024/04/05 05:05:51;;;;;;;;;;;;;;;;;;5095579;28;19909;-72
2024/04/05 05:08:17;;;;;;;;;;;;;;;;;;5095036;28;20415;-72
2024/04/05 05:10:43;;;;;;;;;;;;;;;;;;5093305;28;19908;-72
2024/04/05 05:13:12;;;;;;;;;;;;;;;;;;5095191;28;19916;-72
2024/04/05 05:15:38;;;;;;;;;;;;;;;;;;5095606;28;19912;-72
2024/04/05 05:18:04;;;;;;;;;;;;;;;;;;5098194;28;19919;-73
2024/04/05 05:20:30;;;;;;;;;;;;;;;;;;5100332;28;20391;-72
2024/04/05 05:22:56;;;;;;;;;;;;;;;;;;5095888;28;19916;-72
2024/04/05 05:25:22;;;;;;;;;;;;;;;;;;5095746;28;19955;-74
2024/04/05 05:27:48;;;;;;;;;;;;;;;;;;5110290;28;19918;-75
2024/04/05 05:30:14;;;;;;;;;;;;;;;;;;5103458;27;20389;-75
2024/04/05 05:32:40;;;;;;;;;;;;;;;;;;5100809;28;20353;-74
2024/04/05 05:35:06;;;;;;;;;;;;;;;;;;5110785;28;19935;-72
2024/04/05 05:37:32;;;;;;;;;;;;;;;;;;5096929;28;19908;-71
2024/04/05 05:39:58;;;;;;;;;;;;;;;;;;5092114;28;20391;-70
2024/04/05 05:42:24;;;;;;;;;;;;;;;;;;5091181;28;19911;-70
2024/04/05 05:44:50;;;;;;;;;;;;;;;;;;5099160;28;19934;-71
2024/04/05 05:47:16;;;;;;;;;;;;;;;;;;5105410;28;19976;-70
2024/04/05 05:49:42;;;;;;;;;;;;;;;;;;5088181;28;19924;-70
2024/04/05 05:52:09;;;;;;;;;;;;;;;;;;5091845;28;20026;-72
2024/04/05 05:54:35;;;;;;;;;;;;;;;;;;5094865;28;20030;-69
2024/04/05 05:57:02;;;;;;;;;;;;;;;;;;5096373;28;19954;-68
2024/04/05 05:59:28;;;;;;;;;;;;;;;;;;5091774;28;19909;-69
2024/04/05 06:01:54;;;;;;;;;;;;;;;;;;5098474;28;19964;-69
2024/04/05 06:04:20;;;;;;;;;;;;;;;;;;5101366;28;19919;-70
2024/04/05 06:06:46;;;;;;;;;;;;;;;;;;5093364;28;19918;-69
2024/04/05 06:09:14;;;;;;;;;;;;;;;;;;5094516;28;19908;-69
2024/04/05 06:11:39;;;;;;;;;;;;;;;;;;5092319;28;19909;-69
2024/04/05 06:14:06;;;;;;;;;;;;;;;;;;5078985;28;19955;-69
2024/04/05 06:16:31;;;;;;;;;;;;;;;;;;5092132;28;19908;-68
2024/04/05 06:18:57;;;;;;;;;;;;;;;;;;5091424;28;19966;-68
2024/04/05 06:21:23;;;;;;;;;;;;;;;;;;5093535;28;19908;-68
2024/04/05 06:23:49;;;;;;;;;;;;;;;;;;5091359;28;19912;-69
2024/04/05 06:26:15;;;;;;;;;;;;;;;;;;5090321;28;20682;-68
2024/04/05 06:28:41;;;;;;;;;;;;;;;;;;5097496;28;19958;-70
2024/04/05 06:31:07;;;;;;;;;;;;;;;;;;5081073;28;20006;-70
2024/04/05 06:33:33;;;;;;;;;;;;;;;;;;5080393;28;19916;-67
2024/04/05 06:35:59;;;;;;;;;;;;;;;;;;5092638;28;19912;-68
2024/04/05 06:38:25;;;;;;;;;;;;;;;;;;5090217;28;19912;-71
2024/04/05 06:40:51;;;;;;;;;;;;;;;;;;5095565;28;19912;-68
2024/04/05 06:43:19;;;;;;;;;;;;;;;;;;5090756;28;19967;-70
2024/04/05 06:45:48;;;;;;;;;;;;;;;;;;5092371;28;19908;-70
2024/04/05 06:48:14;;;;;;;;;;;;;;;;;;5095719;28;19920;-70
2024/04/05 06:50:40;;;;;;;;;;;;;;;;;;5096952;28;19912;-70
2024/04/05 06:53:16;;;;;;;;;;;;;;;;;;5106345;28;19970;-68
2024/04/05 07:01:31;;;;;;;;;;;;;;;;;;5096915;28;19908;-70
2024/04/05 07:03:57;;;;;;;;;;;;;;;;;;5103954;28;19935;-70
2024/04/05 07:07:08;;;;;;;;;;;;;;;;;;5090366;28;19916;-71
2024/04/05 07:09:09;;;;;;;;;;;;;;;;;;5091468;28;19919;-68
2024/04/05 07:11:37;;;;;;;;;;;;;;;;;;5107025;28;19920;-68
2024/04/05 07:14:03;;;;;;;;;;;;;;;;;;5090061;28;19931;-68
2024/04/05 07:16:29;;;;;;;;;;;;;;;;;;5090337;28;19915;-69
2024/04/05 07:18:55;;;;;;;;;;;;;;;;;;5096667;28;19923;-68
2024/04/05 07:21:21;;;;;;;;;;;;;;;;;;5103377;28;19923;-68
2024/04/05 07:23:49;;;;;;;;;;;;;;;;;;5104523;28;19987;-69
2024/04/05 07:26:14;;;;;;;;;;;;;;;;;;5093994;28;19935;-68
2024/04/05 07:28:40;;;;;;;;;;;;;;;;;;5092041;28;19908;-68
2024/04/05 07:31:06;;;;;;;;;;;;;;;;;;5105184;28;19912;-68
2024/04/05 07:33:32;;;;;;;;;;;;;;;;;;5107780;28;20360;-67
2024/04/05 07:35:59;;;;;;;;;;;;;;;;;;5112429;28;19908;-67
2024/04/05 07:38:28;;;;;;;;;;;;;;;;;;5090562;28;19912;-68
2024/04/05 07:40:54;;;;;;;;;;;;;;;;;;5090995;28;20273;-67
2024/04/05 07:43:20;;;;;;;;;;;;;;;;;;5090959;28;19908;-67
2024/04/05 07:45:45;;;;;;;;;;;;;;;;;;5090529;28;20429;-69
2024/04/05 07:48:15;;;;;;;;;;;;;;;;;;5093583;28;19934;-71
2024/04/05 07:50:41;;;;;;;;;;;;;;;;;;5093855;28;20378;-69
2024/04/05 07:53:07;;;;;;;;;;;;;;;;;;5090867;28;20070;-69
2024/04/05 07:55:33;;;;;;;;;;;;;;;;;;5095912;28;19939;-68
2024/04/05 07:57:59;;;;;;;;;;;;;;;;;;5105104;28;19931;-70
2024/04/05 08:00:25;;;;;;;;;;;;;;;;;;5098391;28;19920;-69
2024/04/05 08:02:52;;;;;;;;;;;;;;;;;;5094832;28;19954;-68
2024/04/05 08:05:52;;;;;;;;;;;;;;;;;;5110310;27;19938;-69
2024/04/05 08:09:36;;;;;;;;;;;;;;;;;;5121312;27;19915;-68
2024/04/05 08:12:02;;;;;;;;;;;;;;;;;;5122652;27;20003;-68
2024/04/05 08:16:06;;;;;;;;;;;;;;;;;;5089732;27;19920;-67
2024/04/05 08:20:54;;;;;;;;;;;;;;;;;;5115054;27;19920;-67
2024/04/05 08:23:40;;;;;;;;;;;;;;;;;;5126699;27;19920;-68
2024/04/05 08:26:06;;;;;;;;;;;;;;;;;;5123808;27;20439;-69
2024/04/05 08:28:33;;;;;;;;;;;;;;;;;;5117560;28;20003;-71
2024/04/05 08:32:43;;;;;;;;;;;;;;;;;;5119610;27;19919;-71
2024/04/05 08:36:45;;;;;;;;;;;;;;;;;;5111065;27;20280;-73
2024/04/05 08:39:11;;;;;;;;;;;;;;;;;;5122852;28;19912;-73
2024/04/05 08:41:39;;;;;;;;;;;;;;;;;;5109168;28;20292;-71
2024/04/05 08:44:05;;;;;;;;;;;;;;;;;;5111471;28;19977;-70
2024/04/05 08:51:36;;;;;;;;;;;;;;;;;;5127986;27;19916;-67
2024/04/05 09:00:14;;;;;;;;;;;;;;;;;;4163358;27;2265194;-74
2024/04/05 09:02:41;;;;;;;;;;;;;;;;;;5111914;28;19912;-68
2024/04/05 09:05:17;;;;;;;;;;;;;;;;;;5090647;27;20267;-69
2024/04/05 09:10:10;;;;;;;;;;;;;;;;;;5089728;28;19930;-66
2024/04/05 09:12:36;;;;;;;;;;;;;;;;;;5070960;28;19913;-66
2024/04/05 09:17:34;;;;;;;;;;;;;;;;;;5061684;28;20397;-69
2024/04/05 09:20:00;;;;;;;;;;;;;;;;;;5064579;28;19913;-69
2024/04/05 09:24:08;;;;;;;;;;;;;;;;;;5117633;27;19963;-68
2024/04/05 09:26:34;;;;;;;;;;;;;;;;;;5109797;28;20410;-66
2024/04/05 09:30:08;;;;;;;;;;;;;;;;;;5149197;27;19919;-67
2024/04/05 09:32:35;;;;;;;;;;;;;;;;;;5130566;27;19911;-70
2024/04/05 09:35:02;;;;;;;;;;;;;;;;;;5125887;27;20019;-69
2024/04/05 09:37:28;;;;;;;;;;;;;;;;;;5118477;27;20600;-69
2024/04/05 09:39:53;;;;;;;;;;;;;;;;;;5099722;27;19994;-67
2024/04/05 09:42:23;;;;;;;;;;;;;;;;;;5110638;28;19912;-69
2024/04/05 09:47:03;;;;;;;;;;;;;;;;;;5078956;27;20384;-67
2024/04/05 09:50:51;;;;;;;;;;;;;;;;;;5101225;27;19931;-66
2024/04/05 09:53:18;;;;;;;;;;;;;;;;;;5099194;28;19916;-66
2024/04/05 09:55:49;;;;;;;;;;;;;;;;;;5097213;28;19973;-67
2024/04/05 09:58:15;;;;;;;;;;;;;;;;;;5091620;28;19916;-67
2024/04/05 10:03:12;;;;;;;;;;;;;;;;;;5125006;27;19964;-69
2024/04/05 10:05:38;;;;;;;;;;;;;;;;;;5108831;28;19931;-66
2024/04/05 10:08:04;;;;;;;;;;;;;;;;;;5108117;28;19920;-67
2024/04/05 10:10:34;;;;;;;;;;;;;;;;;;5110462;28;19908;-67
2024/04/05 10:13:00;;;;;;;;;;;;;;;;;;5110094;28;19916;-68
2024/04/05 10:18:10;;;;;;;;;;;;;;;;;;5108349;28;20019;-68
2024/04/05 10:20:36;;;;;;;;;;;;;;;;;;5102043;28;20002;-67
2024/04/05 10:23:03;;;;;;;;;;;;;;;;;;5105995;28;19920;-66
2024/04/05 10:25:30;;;;;;;;;;;;;;;;;;5108596;28;20525;-67
2024/04/05 10:27:56;;;;;;;;;;;;;;;;;;5106698;28;19908;-69
2024/04/05 10:30:22;;;;;;;;;;;;;;;;;;5099606;28;19912;-68
2024/04/05 10:32:48;;;;;;;;;;;;;;;;;;5110485;28;20019;-68
2024/04/05 10:35:14;;;;;;;;;;;;;;;;;;5111858;28;19908;-69
2024/04/05 10:37:40;;;;;;;;;;;;;;;;;;5128517;27;19908;-69
2024/04/05 10:40:10;;;;;;;;;;;;;;;;;;5116148;28;20010;-68
2024/04/05 10:42:36;;;;;;;;;;;;;;;;;;5112708;28;19915;-68
2024/04/05 10:45:05;;;;;;;;;;;;;;;;;;5129039;27;20002;-68
2024/04/05 10:47:31;;;;;;;;;;;;;;;;;;5125426;27;19911;-69
2024/04/05 10:49:57;;;;;;;;;;;;;;;;;;5121716;28;20449;-71
2024/04/05 10:52:23;;;;;;;;;;;;;;;;;;5129651;27;20356;-69
2024/04/05 10:54:49;;;;;;;;;;;;;;;;;;5117894;27;19920;-69
2024/04/05 10:57:15;;;;;;;;;;;;;;;;;;5122991;28;19915;-70
2024/04/05 10:59:41;;;;;;;;;;;;;;;;;;5129078;27;19907;-70
2024/04/05 11:02:07;;;;;;;;;;;;;;;;;;5113828;27;19969;-69
2024/04/05 11:04:33;;;;;;;;;;;;;;;;;;5106981;28;20284;-68
2024/04/05 11:07:00;;;;;;;;;;;;;;;;;;5104524;28;19912;-69
2024/04/05 11:09:26;;;;;;;;;;;;;;;;;;5105994;28;20446;-69
2024/04/05 11:11:52;;;;;;;;;;;;;;;;;;5118760;28;19911;-70
2024/04/05 11:14:18;;;;;;;;;;;;;;;;;;5103701;28;20483;-67
2024/04/05 11:16:44;;;;;;;;;;;;;;;;;;5101949;28;20272;-68
2024/04/05 11:19:10;;;;;;;;;;;;;;;;;;5099079;28;19920;-69
2024/04/05 11:21:35;;;;;;;;;;;;;;;;;;5098998;28;19959;-68
2024/04/05 11:24:02;;;;;;;;;;;;;;;;;;5097513;28;19999;-69
2024/04/05 11:26:30;;;;;;;;;;;;;;;;;;5112038;28;19912;-68
2024/04/05 11:28:56;;;;;;;;;;;;;;;;;;5100453;28;19911;-67
2024/04/05 11:31:25;;;;;;;;;;;;;;;;;;5098246;28;19919;-67
2024/04/05 11:33:51;;;;;;;;;;;;;;;;;;5106994;28;19919;-68
2024/04/05 11:36:18;;;;;;;;;;;;;;;;;;5106447;28;19916;-69
2024/04/05 11:38:44;;;;;;;;;;;;;;;;;;5097182;28;19915;-68
2024/04/05 11:41:10;;;;;;;;;;;;;;;;;;5111920;28;19922;-68
2024/04/05 11:43:36;;;;;;;;;;;;;;;;;;5099439;28;20441;-68
2024/04/05 11:58:42;;;;;;;;;;;;;;;;;;3465580;27;22560;-68
2024/04/05 12:01:08;;;;;;;;;;;;;;;;;;5020728;28;2215408;-68
2024/04/05 12:03:34;;;;;;;;;;;;;;;;;;5100913;28;20299;-68
2024/04/05 12:06:00;;;;;;;;;;;;;;;;;;5096251;28;19959;-68
2024/04/05 12:08:26;;;;;;;;;;;;;;;;;;5097309;28;19959;-69
2024/04/05 12:10:52;;;;;;;;;;;;;;;;;;5098337;28;20065;-68
2024/04/05 12:13:18;;;;;;;;;;;;;;;;;;5098932;28;19919;-68
2024/04/05 12:15:44;;;;;;;;;;;;;;;;;;5098893;28;19957;-69
2024/04/05 12:18:11;;;;;;;;;;;;;;;;;;5096640;28;19915;-68
2024/04/05 12:20:37;;;;;;;;;;;;;;;;;;5096454;28;20421;-68
2024/04/05 12:23:03;;;;;;;;;;;;;;;;;;5099167;28;20006;-69
2024/04/05 12:25:29;;;;;;;;;;;;;;;;;;5099848;28;19915;-69
2024/04/05 12:27:55;;;;;;;;;;;;;;;;;;5096114;28;20255;-69
2024/04/05 12:30:21;;;;;;;;;;;;;;;;;;5096535;28;19921;-69
2024/04/05 12:32:47;;;;;;;;;;;;;;;;;;5095493;28;19915;-68
2024/04/05 12:35:13;;;;;;;;;;;;;;;;;;5110065;28;19930;-69
2024/04/05 12:37:38;;;;;;;;;;;;;;;;;;5109593;28;19953;-72
2024/04/05 12:40:14;;;;;;;;;;;;;;;;;;5109461;28;19912;-72
2024/04/05 12:42:40;;;;;;;;;;;;;;;;;;5108094;28;20254;-72
2024/04/05 12:45:08;;;;;;;;;;;;;;;;;;5108525;28;19919;-73
2024/04/05 12:47:35;;;;;;;;;;;;;;;;;;5108455;28;20003;-73
2024/04/05 12:50:00;;;;;;;;;;;;;;;;;;5107977;28;19914;-72
2024/04/05 12:52:28;;;;;;;;;;;;;;;;;;5107047;28;19912;-72
2024/04/05 12:54:54;;;;;;;;;;;;;;;;;;5108342;28;19914;-72
2024/04/05 12:57:23;;;;;;;;;;;;;;;;;;5106443;28;19961;-72
2024/04/05 12:59:49;;;;;;;;;;;;;;;;;;5103364;28;20292;-72
2024/04/05 13:02:15;;;;;;;;;;;;;;;;;;5116723;28;19908;-72
2024/04/05 13:04:41;;;;;;;;;;;;;;;;;;5098631;28;20036;-72
2024/04/05 13:07:07;;;;;;;;;;;;;;;;;;5116869;28;19916;-72
2024/04/05 13:09:33;;;;;;;;;;;;;;;;;;5091789;28;19912;-72
2024/04/05 13:12:01;;;;;;;;;;;;;;;;;;5096441;28;19908;-72
2024/04/05 13:14:27;;;;;;;;;;;;;;;;;;5096418;28;19908;-72
2024/04/05 13:16:55;;;;;;;;;;;;;;;;;;5095883;28;19953;-72
2024/04/05 13:19:21;;;;;;;;;;;;;;;;;;5096330;28;19908;-72
2024/04/05 13:21:47;;;;;;;;;;;;;;;;;;5096415;28;19915;-72
2024/04/05 13:24:13;;;;;;;;;;;;;;;;;;5095835;28;19909;-72
2024/04/05 13:26:40;;;;;;;;;;;;;;;;;;5077771;28;19973;-72
2024/04/05 13:29:05;;;;;;;;;;;;;;;;;;5096270;28;19912;-72
2024/04/05 13:31:31;;;;;;;;;;;;;;;;;;5095495;28;19955;-72
2024/04/05 13:33:57;;;;;;;;;;;;;;;;;;5096137;28;19908;-72
2024/04/05 13:36:24;;;;;;;;;;;;;;;;;;5095898;28;19912;-72
2024/04/05 13:38:51;;;;;;;;;;;;;;;;;;5077449;28;19908;-72
2024/04/05 13:41:17;;;;;;;;;;;;;;;;;;5077754;28;19908;-73
2024/04/05 13:43:43;;;;;;;;;;;;;;;;;;5095838;28;19908;-72
2024/04/05 13:46:09;;;;;;;;;;;;;;;;;;5095327;28;20037;-72
2024/04/05 13:48:35;;;;;;;;;;;;;;;;;;5095562;28;19923;-73
2024/04/05 13:51:01;;;;;;;;;;;;;;;;;;5095687;28;20315;-72
2024/04/05 13:53:32;;;;;;;;;;;;;;;;;;5095269;28;19914;-72
2024/04/05 13:55:58;;;;;;;;;;;;;;;;;;5077346;28;19914;-72
2024/04/05 13:58:24;;;;;;;;;;;;;;;;;;5095100;28;20002;-72
2024/04/05 14:00:49;;;;;;;;;;;;;;;;;;5095246;28;19920;-73
2024/04/05 14:03:15;;;;;;;;;;;;;;;;;;5095385;28;19961;-73
2024/04/05 14:05:41;;;;;;;;;;;;;;;;;;5094904;28;19908;-73
2024/04/05 14:08:07;;;;;;;;;;;;;;;;;;5095216;28;20015;-73
2024/04/05 14:10:33;;;;;;;;;;;;;;;;;;5094338;28;19908;-73
2024/04/05 14:12:59;;;;;;;;;;;;;;;;;;5094873;28;19908;-73
2024/04/05 14:15:25;;;;;;;;;;;;;;;;;;5095350;28;20053;-72
2024/04/05 14:17:51;;;;;;;;;;;;;;;;;;5076986;28;19915;-72
2024/04/05 14:20:17;;;;;;;;;;;;;;;;;;5094808;28;19908;-72
2024/04/05 14:22:43;;;;;;;;;;;;;;;;;;5095132;28;20000;-72
2024/04/05 14:25:09;;;;;;;;;;;;;;;;;;5095092;28;20373;-72
2024/04/05 14:27:35;;;;;;;;;;;;;;;;;;5094569;28;19993;-73
2024/04/05 14:30:01;;;;;;;;;;;;;;;;;;5095003;28;19912;-73
2024/04/05 14:32:27;;;;;;;;;;;;;;;;;;5094905;28;20373;-73
2024/04/05 14:34:53;;;;;;;;;;;;;;;;;;5094431;28;19930;-73
2024/04/05 14:37:19;;;;;;;;;;;;;;;;;;5094879;28;20421;-73
2024/04/05 14:39:45;;;;;;;;;;;;;;;;;;5094693;28;20007;-73
2024/04/05 14:42:12;;;;;;;;;;;;;;;;;;5094511;28;19915;-74
2024/04/05 14:44:38;;;;;;;;;;;;;;;;;;5094634;28;19908;-73
2024/04/05 14:47:05;;;;;;;;;;;;;;;;;;5094506;28;19916;-73
2024/04/05 14:49:31;;;;;;;;;;;;;;;;;;5094084;28;19959;-72
2024/04/05 14:51:57;;;;;;;;;;;;;;;;;;5094993;28;19955;-72
2024/04/05 14:54:23;;;;;;;;;;;;;;;;;;5094529;28;19908;-72
2024/04/05 14:56:49;;;;;;;;;;;;;;;;;;5093981;28;19915;-72
2024/04/05 14:59:15;;;;;;;;;;;;;;;;;;5094391;28;19908;-72
2024/04/05 15:01:41;;;;;;;;;;;;;;;;;;5094008;28;19919;-73
2024/04/05 15:04:07;;;;;;;;;;;;;;;;;;5094787;28;19908;-73
2024/04/05 15:06:33;;;;;;;;;;;;;;;;;;5094192;28;20369;-72
2024/04/05 15:08:59;;;;;;;;;;;;;;;;;;5093977;28;19908;-73
2024/04/05 15:11:26;;;;;;;;;;;;;;;;;;5076018;28;19954;-73
2024/04/05 15:13:52;;;;;;;;;;;;;;;;;;5094160;28;19915;-72
2024/04/05 15:16:18;;;;;;;;;;;;;;;;;;5093708;28;19908;-72
2024/04/05 15:18:44;;;;;;;;;;;;;;;;;;5094124;28;19966;-73
2024/04/05 15:21:10;;;;;;;;;;;;;;;;;;5075998;28;19908;-73
2024/04/05 15:23:37;;;;;;;;;;;;;;;;;;5093690;28;19908;-73
2024/04/05 15:26:04;;;;;;;;;;;;;;;;;;5093926;28;19908;-73
2024/04/05 15:28:32;;;;;;;;;;;;;;;;;;5093907;28;20014;-73
2024/04/05 15:31:00;;;;;;;;;;;;;;;;;;5093591;28;19960;-73
2024/04/05 15:33:26;;;;;;;;;;;;;;;;;;5093897;28;20413;-72
2024/04/05 15:35:52;;;;;;;;;;;;;;;;;;5075730;28;19916;-72
2024/04/05 15:38:18;;;;;;;;;;;;;;;;;;5093593;28;19916;-72
2024/04/05 15:40:44;;;;;;;;;;;;;;;;;;5093870;28;19908;-72
2024/04/05 15:43:10;;;;;;;;;;;;;;;;;;5075698;28;19958;-72
2024/04/05 15:45:41;;;;;;;;;;;;;;;;;;5093396;28;19908;-72
2024/04/05 15:48:07;;;;;;;;;;;;;;;;;;5093723;28;19916;-74
2024/04/05 15:50:33;;;;;;;;;;;;;;;;;;5075539;28;20430;-71
2024/04/05 15:52:59;;;;;;;;;;;;;;;;;;5093324;28;19965;-72
2024/04/05 15:55:24;;;;;;;;;;;;;;;;;;5093973;28;20409;-71
2024/04/05 15:57:50;;;;;;;;;;;;;;;;;;5093293;28;19908;-72
2024/04/05 16:00:16;;;;;;;;;;;;;;;;;;5093535;28;20438;-71
2024/04/05 16:02:42;;;;;;;;;;;;;;;;;;5093541;28;19908;-71
2024/04/05 16:05:08;;;;;;;;;;;;;;;;;;5093096;28;19923;-72
2024/04/05 16:07:34;;;;;;;;;;;;;;;;;;5075266;28;19920;-71
2024/04/05 16:10:04;;;;;;;;;;;;;;;;;;5093601;28;19912;-72
2024/04/05 16:12:31;;;;;;;;;;;;;;;;;;5093079;28;19908;-72
2024/04/05 16:14:57;;;;;;;;;;;;;;;;;;5093409;28;19908;-73
2024/04/05 16:17:23;;;;;;;;;;;;;;;;;;5093403;28;20053;-72
2024/04/05 16:19:49;;;;;;;;;;;;;;;;;;5093190;28;19908;-73
2024/04/05 16:22:15;;;;;;;;;;;;;;;;;;5093434;28;19916;-73
2024/04/05 16:24:41;;;;;;;;;;;;;;;;;;5093452;28;19943;-72
2024/04/05 16:27:07;;;;;;;;;;;;;;;;;;5074788;28;20446;-73
2024/04/05 16:29:35;;;;;;;;;;;;;;;;;;5093571;28;20362;-72
2024/04/05 16:32:01;;;;;;;;;;;;;;;;;;5093282;28;19908;-72
2024/04/05 16:34:30;;;;;;;;;;;;;;;;;;5095287;28;19908;-72
2024/04/05 16:36:56;;;;;;;;;;;;;;;;;;5078630;28;19977;-72
2024/04/05 16:39:22;;;;;;;;;;;;;;;;;;5097019;28;20002;-72
2024/04/05 16:41:49;;;;;;;;;;;;;;;;;;5096775;28;20372;-72
2024/04/05 16:44:14;;;;;;;;;;;;;;;;;;5096954;28;19912;-72
2024/04/05 16:46:41;;;;;;;;;;;;;;;;;;5096958;28;20379;-72
2024/04/05 16:49:06;;;;;;;;;;;;;;;;;;5096428;28;19915;-72
2024/04/05 16:51:32;;;;;;;;;;;;;;;;;;5096740;28;19908;-71
2024/04/05 16:53:58;;;;;;;;;;;;;;;;;;5097089;28;19999;-71
2024/04/05 16:56:25;;;;;;;;;;;;;;;;;;5079254;28;19912;-71
2024/04/05 16:58:51;;;;;;;;;;;;;;;;;;5078287;28;19914;-71
2024/04/05 17:01:17;;;;;;;;;;;;;;;;;;5096149;28;19920;-71
2024/04/05 17:03:42;;;;;;;;;;;;;;;;;;5096604;28;19953;-71
2024/04/05 17:06:09;;;;;;;;;;;;;;;;;;5096510;28;20376;-71
2024/04/05 17:08:35;;;;;;;;;;;;;;;;;;5096086;28;19923;-71
2024/04/05 17:11:04;;;;;;;;;;;;;;;;;;5078233;28;19961;-72
2024/04/05 17:15:07;;;;;;;;;;;;;;;;;;5111892;27;19923;-71
2024/04/05 17:17:50;;;;;;;;;;;;;;;;;;5092104;27;19919;-72
2024/04/05 17:20:16;;;;;;;;;;;;;;;;;;5091232;28;19912;-73
2024/04/05 17:24:27;;;;;;;;;;;;;;;;;;5090771;27;19923;-72
2024/04/05 17:26:53;;;;;;;;;;;;;;;;;;5091439;28;19994;-72
2024/04/05 17:29:19;;;;;;;;;;;;;;;;;;5091266;28;19909;-72
2024/04/05 17:31:45;;;;;;;;;;;;;;;;;;5090249;28;19914;-72
2024/04/05 17:34:11;;;;;;;;;;;;;;;;;;5091192;28;19908;-72
2024/04/05 17:37:43;;;;;;;;;;;;;;;;;;5091321;27;20286;-72
2024/04/05 17:40:49;;;;;;;;;;;;;;;;;;5112020;27;19922;-73